createdAt,value
2017-11-13T00:00:49.767Z,86.70
2017-11-13T00:03:17.231Z,86.60
2017-11-13T00:05:45.464Z,86.60
2017-11-13T00:08:12.932Z,86.40
2017-11-13T00:10:40.419Z,86.40
2017-11-13T00:13:07.968Z,86.00
2017-11-13T00:15:35.431Z,85.50
2017-11-13T00:18:02.890Z,85.40
2017-11-13T00:20:31.146Z,85.30
2017-11-13T00:22:58.615Z,85.10
2017-11-13T00:25:26.070Z,85.30
2017-11-13T00:27:53.526Z,85.40
2017-11-13T00:30:21.012Z,85.50
2017-11-13T00:32:48.461Z,86.30
2017-11-13T00:35:16.712Z,85.20
2017-11-13T00:37:44.174Z,85.10
2017-11-13T00:40:11.726Z,85.50
2017-11-13T00:42:39.199Z,85.50
2017-11-13T00:45:07.435Z,85.40
2017-11-13T00:47:34.905Z,85.30
2017-11-13T00:50:02.371Z,85.00
2017-11-13T00:52:29.840Z,84.60
2017-11-13T00:54:57.291Z,85.00
2017-11-13T00:57:24.837Z,85.00
2017-11-13T00:59:52.400Z,85.10
2017-11-13T01:02:19.980Z,85.10
2017-11-13T01:04:48.194Z,84.80
2017-11-13T01:07:15.653Z,84.80
2017-11-13T01:09:43.110Z,84.50
2017-11-13T01:12:10.585Z,84.60
2017-11-13T01:14:38.061Z,84.70
2017-11-13T01:17:05.532Z,84.80
2017-11-13T01:19:33.753Z,85.10
2017-11-13T01:22:01.215Z,85.10
2017-11-13T01:24:28.697Z,85.10
2017-11-13T01:26:56.218Z,85.10
2017-11-13T01:29:23.678Z,85.10
2017-11-13T01:31:51.143Z,85.30
2017-11-13T01:34:18.629Z,85.40
2017-11-13T01:36:46.197Z,85.20
2017-11-13T01:39:13.652Z,85.40
2017-11-13T01:41:41.119Z,85.70
2017-11-13T01:44:09.369Z,86.00
2017-11-13T01:46:36.850Z,85.70
2017-11-13T01:49:04.315Z,85.80
2017-11-13T01:51:32.542Z,86.00
2017-11-13T01:54:00.038Z,86.00
2017-11-13T01:56:27.631Z,86.00
2017-11-13T01:58:55.143Z,85.90
2017-11-13T02:01:24.124Z,85.60
2017-11-13T02:03:51.600Z,85.60
2017-11-13T02:06:19.063Z,85.50
2017-11-13T02:08:46.602Z,85.90
2017-11-13T02:11:14.153Z,85.40
2017-11-13T02:13:41.615Z,85.10
2017-11-13T02:16:09.064Z,85.30
2017-11-13T02:18:36.540Z,85.80
2017-11-13T02:21:04.003Z,86.20
2017-11-13T02:23:31.473Z,86.20
2017-11-13T02:25:59.702Z,86.50
2017-11-13T02:28:27.169Z,86.40
2017-11-13T02:30:54.719Z,86.40
2017-11-13T02:33:22.195Z,86.80
2017-11-13T02:35:49.681Z,86.70
2017-11-13T02:38:17.910Z,86.60
2017-11-13T02:40:45.367Z,86.60
2017-11-13T02:43:12.826Z,86.40
2017-11-13T02:45:40.292Z,86.30
2017-11-13T02:48:07.895Z,86.40
2017-11-13T02:50:35.510Z,86.50
2017-11-13T02:53:03.029Z,86.70
2017-11-13T02:55:30.489Z,86.50
2017-11-13T02:57:57.955Z,87.30
2017-11-13T03:00:25.420Z,86.40
2017-11-13T03:02:52.890Z,86.10
2017-11-13T03:05:20.339Z,86.00
2017-11-13T03:07:47.806Z,86.10
2017-11-13T03:10:15.379Z,85.80
2017-11-13T03:12:42.937Z,86.40
2017-11-13T03:15:10.490Z,86.60
2017-11-13T03:17:37.953Z,86.50
2017-11-13T03:20:05.510Z,86.60
2017-11-13T03:22:32.984Z,86.50
2017-11-13T03:25:01.220Z,86.30
2017-11-13T03:27:28.698Z,86.30
2017-11-13T03:29:56.166Z,86.30
2017-11-13T03:32:24.382Z,86.80
2017-11-13T03:34:51.851Z,86.80
2017-11-13T03:37:19.322Z,86.70
2017-11-13T03:39:46.798Z,87.10
2017-11-13T03:42:14.267Z,86.90
2017-11-13T03:44:42.494Z,86.50
2017-11-13T03:47:09.972Z,86.50
2017-11-13T03:49:37.425Z,86.60
2017-11-13T03:52:04.892Z,86.70
2017-11-13T03:54:32.357Z,86.70
2017-11-13T03:57:00.612Z,87.10
2017-11-13T03:59:28.199Z,87.00
2017-11-13T04:01:55.660Z,87.20
2017-11-13T04:04:23.214Z,87.40
2017-11-13T04:06:50.720Z,86.40
2017-11-13T04:09:18.188Z,87.50
2017-11-13T04:11:45.641Z,86.90
2017-11-13T04:14:13.098Z,87.00
2017-11-13T04:16:40.559Z,86.90
2017-11-13T04:19:08.023Z,86.80
2017-11-13T04:21:35.507Z,86.60
2017-11-13T04:24:03.741Z,87.30
2017-11-13T04:26:31.211Z,86.40
2017-11-13T04:28:58.668Z,86.10
2017-11-13T04:31:26.133Z,86.60
2017-11-13T04:33:53.594Z,86.80
2017-11-13T04:36:21.162Z,87.10
2017-11-13T04:38:48.728Z,87.00
2017-11-13T04:41:16.196Z,86.90
2017-11-13T04:43:44.466Z,86.40
2017-11-13T04:46:12.013Z,86.40
2017-11-13T04:48:39.558Z,86.50
2017-11-13T04:51:07.037Z,86.30
2017-11-13T04:53:34.539Z,86.30
2017-11-13T04:56:02.037Z,86.60
2017-11-13T04:58:29.594Z,86.90
2017-11-13T05:00:57.163Z,87.10
2017-11-13T05:03:24.630Z,86.60
2017-11-13T05:05:52.882Z,87.10
2017-11-13T05:08:20.610Z,86.10
2017-11-13T05:10:48.583Z,85.90
2017-11-13T05:13:16.100Z,87.00
2017-11-13T05:15:43.595Z,87.30
2017-11-13T05:18:11.064Z,87.10
2017-11-13T05:20:38.533Z,87.00
2017-11-13T05:23:06.011Z,86.60
2017-11-13T05:25:33.480Z,86.60
2017-11-13T05:28:01.742Z,87.30
2017-11-13T05:30:29.304Z,87.00
2017-11-13T05:32:56.858Z,86.80
2017-11-13T05:35:24.317Z,87.10
2017-11-13T05:37:51.786Z,87.30
2017-11-13T05:40:20.024Z,87.30
2017-11-13T05:42:47.484Z,87.20
2017-11-13T05:45:14.992Z,87.40
2017-11-13T05:47:42.463Z,87.70
2017-11-13T05:50:09.978Z,87.70
2017-11-13T05:52:37.532Z,88.00
2017-11-13T05:55:04.998Z,88.20
2017-11-13T05:57:32.457Z,88.10
2017-11-13T05:59:59.939Z,88.20
2017-11-13T06:02:27.408Z,88.30
2017-11-13T06:04:54.887Z,88.50
2017-11-13T06:07:22.787Z,88.70
2017-11-13T06:09:51.760Z,89.10
2017-11-13T06:12:19.235Z,89.10
2017-11-13T06:14:46.738Z,89.80
2017-11-13T06:17:14.218Z,89.80
2017-11-13T06:19:41.722Z,89.80
2017-11-13T06:22:09.179Z,89.70
2017-11-13T06:24:37.401Z,89.50
2017-11-13T06:27:04.913Z,89.40
2017-11-13T06:29:33.174Z,89.50
2017-11-13T06:32:00.651Z,89.50
2017-11-13T06:34:28.963Z,89.20
2017-11-13T06:36:56.434Z,89.10
2017-11-13T06:39:23.930Z,89.30
2017-11-13T06:41:51.469Z,89.40
2017-11-13T06:44:18.932Z,90.20
2017-11-13T06:46:46.650Z,89.40
2017-11-13T06:49:14.129Z,89.40
2017-11-13T06:51:41.667Z,89.60
2017-11-13T06:54:09.176Z,89.80
2017-11-13T06:56:36.644Z,89.70
2017-11-13T06:59:04.958Z,89.30
2017-11-13T07:01:32.464Z,89.30
2017-11-13T07:03:59.939Z,89.20
2017-11-13T07:06:28.171Z,89.40
2017-11-13T07:08:55.644Z,89.30
2017-11-13T07:11:23.111Z,89.80
2017-11-13T07:13:50.595Z,89.50
2017-11-13T07:16:18.141Z,89.30
2017-11-13T07:18:46.379Z,89.10
2017-11-13T07:21:13.851Z,89.10
2017-11-13T07:23:41.322Z,89.30
2017-11-13T07:26:09.567Z,89.00
2017-11-13T07:28:37.030Z,89.00
2017-11-13T07:31:04.482Z,89.50
2017-11-13T07:33:31.960Z,88.50
2017-11-13T07:36:00.197Z,89.80
2017-11-13T07:38:27.687Z,89.80
2017-11-13T07:40:55.146Z,90.00
2017-11-13T07:43:22.615Z,89.50
2017-11-13T07:45:50.875Z,89.60
2017-11-13T07:48:18.339Z,89.60
2017-11-13T07:50:45.798Z,89.30
2017-11-13T07:53:14.067Z,89.00
2017-11-13T07:55:41.535Z,89.50
2017-11-13T07:58:09.753Z,90.10
2017-11-13T08:00:37.222Z,90.10
2017-11-13T08:03:04.695Z,89.80
2017-11-13T08:05:32.301Z,89.50
2017-11-13T08:08:00.536Z,89.10
2017-11-13T08:10:28.042Z,89.00
2017-11-13T08:12:55.567Z,89.10
2017-11-13T08:15:23.022Z,89.10
2017-11-13T08:17:50.575Z,88.80
2017-11-13T08:20:18.040Z,89.20
2017-11-13T08:22:45.508Z,89.00
2017-11-13T08:25:13.736Z,88.80
2017-11-13T08:27:41.214Z,88.70
2017-11-13T08:30:08.660Z,89.30
2017-11-13T08:32:36.223Z,89.40
2017-11-13T08:35:03.679Z,89.50
2017-11-13T08:37:31.141Z,89.60
2017-11-13T08:39:58.628Z,89.60
2017-11-13T08:42:26.868Z,89.70
2017-11-13T08:44:54.335Z,89.60
2017-11-13T08:47:21.819Z,89.70
2017-11-13T08:49:50.051Z,88.70
2017-11-13T08:52:17.539Z,88.70
2017-11-13T08:54:45.772Z,89.20
2017-11-13T08:57:13.235Z,89.00
2017-11-13T08:59:40.698Z,88.50
2017-11-13T09:02:08.161Z,89.50
2017-11-13T09:04:35.614Z,89.10
2017-11-13T09:07:03.062Z,88.90
2017-11-13T09:09:30.596Z,89.10
2017-11-13T09:11:58.055Z,89.20
2017-11-13T09:14:25.546Z,89.20
2017-11-13T09:16:53.314Z,88.50
2017-11-13T09:19:20.798Z,88.10
2017-11-13T09:21:49.158Z,88.00
2017-11-13T09:24:16.625Z,87.90
2017-11-13T09:26:44.861Z,88.20
2017-11-13T09:29:12.430Z,88.10
2017-11-13T09:31:39.902Z,88.30
2017-11-13T09:34:07.358Z,88.30
2017-11-13T09:36:34.910Z,87.70
2017-11-13T09:39:02.358Z,88.10
2017-11-13T09:41:29.933Z,87.20
2017-11-13T09:43:57.489Z,87.00
2017-11-13T09:46:24.956Z,87.20
2017-11-13T09:48:52.428Z,87.90
2017-11-13T09:51:20.668Z,87.00
2017-11-13T09:53:48.116Z,86.90
2017-11-13T09:56:15.580Z,86.60
2017-11-13T09:58:43.137Z,85.90
2017-11-13T10:01:10.605Z,85.00
2017-11-13T10:03:38.170Z,85.80
2017-11-13T10:06:05.659Z,86.40
2017-11-13T10:08:33.184Z,86.50
2017-11-13T10:11:00.642Z,85.70
2017-11-13T10:13:28.128Z,85.90
2017-11-13T10:15:55.604Z,86.90
2017-11-13T10:18:23.111Z,86.60
2017-11-13T10:20:50.704Z,85.60
2017-11-13T10:23:18.281Z,85.90
2017-11-13T10:25:45.947Z,85.70
2017-11-13T10:28:13.428Z,85.70
2017-11-13T10:30:40.878Z,85.80
2017-11-13T10:33:08.459Z,85.70
2017-11-13T10:35:36.010Z,85.30
2017-11-13T10:38:03.498Z,85.00
2017-11-13T10:40:31.729Z,85.20
2017-11-13T10:42:59.280Z,85.10
2017-11-13T10:45:26.738Z,85.70
2017-11-13T10:47:54.315Z,85.20
2017-11-13T10:50:21.950Z,85.70
2017-11-13T10:52:49.414Z,85.10
2017-11-13T10:55:17.178Z,85.10
2017-11-13T10:57:46.329Z,84.70
2017-11-13T11:00:13.850Z,83.50
2017-11-13T11:02:41.328Z,83.20
2017-11-13T11:05:08.848Z,83.30
2017-11-13T11:07:36.315Z,83.20
2017-11-13T11:10:03.796Z,82.70
2017-11-13T11:12:31.259Z,81.40
2017-11-13T11:15:17.241Z,77.10
2017-11-13T11:17:50.292Z,77.00
2017-11-13T11:20:20.170Z,78.90
2017-11-13T11:22:47.632Z,77.10
2017-11-13T11:25:15.115Z,78.90
2017-11-13T11:27:42.596Z,75.40
2017-11-13T11:30:15.773Z,75.20
2017-11-13T11:36:02.660Z,66.50
2017-11-13T11:38:30.126Z,68.50
2017-11-13T11:40:59.022Z,69.70
2017-11-13T11:43:26.485Z,72.30
2017-11-13T11:45:54.826Z,73.10
2017-11-13T11:48:23.829Z,73.70
2017-11-13T11:50:52.084Z,73.00
2017-11-13T11:53:19.548Z,72.90
2017-11-13T11:55:50.831Z,73.90
2017-11-13T11:58:18.305Z,70.70
2017-11-13T12:00:45.787Z,71.20
2017-11-13T12:03:14.030Z,64.40
2017-11-13T12:05:41.533Z,63.90
2017-11-13T12:08:09.012Z,66.20
2017-11-13T12:10:36.520Z,68.10
2017-11-13T12:13:03.977Z,70.80
2017-11-13T12:15:31.480Z,68.80
2017-11-13T12:17:59.031Z,69.10
2017-11-13T12:20:27.312Z,65.00
2017-11-13T12:22:54.850Z,65.00
2017-11-13T12:25:22.339Z,65.10
2017-11-13T12:27:49.819Z,64.30
2017-11-13T12:30:17.324Z,65.30
2017-11-13T12:32:44.968Z,66.40
2017-11-13T12:35:12.378Z,68.10
2017-11-13T12:37:39.900Z,70.30
2017-11-13T12:40:07.370Z,71.50
2017-11-13T12:42:35.596Z,70.30
2017-11-13T12:45:03.057Z,70.30
2017-11-13T12:47:30.577Z,68.00
2017-11-13T12:49:58.042Z,67.30
2017-11-13T12:52:25.519Z,63.20
2017-11-13T12:54:53.019Z,63.50
2017-11-13T12:57:21.253Z,62.40
2017-11-13T12:59:48.852Z,62.30
2017-11-13T13:02:16.335Z,62.10
2017-11-13T13:04:43.848Z,63.50
2017-11-13T13:07:11.317Z,64.70
2017-11-13T13:09:38.887Z,65.10
2017-11-13T13:12:07.296Z,65.60
2017-11-13T13:14:34.767Z,65.60
2017-11-13T13:17:02.240Z,66.10
2017-11-13T13:19:29.707Z,68.00
2017-11-13T13:21:57.162Z,68.80
2017-11-13T13:24:25.223Z,69.90
2017-11-13T13:26:53.599Z,70.00
2017-11-13T13:29:21.124Z,70.00
2017-11-13T13:31:48.656Z,70.10
2017-11-13T13:34:16.918Z,71.10
2017-11-13T13:36:44.373Z,71.10
2017-11-13T13:39:11.941Z,71.50
2017-11-13T13:41:39.399Z,71.70
2017-11-13T13:44:06.869Z,71.40
2017-11-13T13:46:35.150Z,72.00
2017-11-13T13:49:03.378Z,71.80
2017-11-13T13:51:31.071Z,71.80
2017-11-13T13:53:58.534Z,72.50
2017-11-13T13:56:27.306Z,73.00
2017-11-13T13:58:54.772Z,72.70
2017-11-13T14:01:22.317Z,72.80
2017-11-13T14:03:49.773Z,73.20
2017-11-13T14:06:17.237Z,73.80
2017-11-13T14:08:44.750Z,74.00
2017-11-13T14:11:12.221Z,74.30
2017-11-13T14:13:39.681Z,74.30
2017-11-13T14:16:07.151Z,74.20
2017-11-13T14:18:34.718Z,74.40
2017-11-13T14:21:03.056Z,73.60
2017-11-13T14:23:30.525Z,73.50
2017-11-13T14:25:57.991Z,74.30
2017-11-13T14:28:25.457Z,74.10
2017-11-13T14:30:52.983Z,74.00
2017-11-13T14:33:20.462Z,74.50
2017-11-13T14:35:47.948Z,74.50
2017-11-13T14:38:15.425Z,74.60
2017-11-13T14:40:43.679Z,74.80
2017-11-13T14:43:11.243Z,74.80
2017-11-13T14:45:39.611Z,75.00
2017-11-13T14:48:07.066Z,75.00
2017-11-13T14:50:34.628Z,75.00
2017-11-13T14:53:02.095Z,75.20
2017-11-13T14:55:29.541Z,75.50
2017-11-13T14:57:57.107Z,75.40
2017-11-13T15:00:24.561Z,76.30
2017-11-13T15:02:52.116Z,76.10
2017-11-13T15:05:19.663Z,76.50
2017-11-13T15:07:47.136Z,77.00
2017-11-13T15:10:14.680Z,77.00
2017-11-13T15:12:42.254Z,77.30
2017-11-13T15:15:10.499Z,78.60
2017-11-13T15:17:37.971Z,78.50
2017-11-13T15:20:06.206Z,78.30
2017-11-13T15:22:33.663Z,78.60
2017-11-13T15:25:01.123Z,78.40
2017-11-13T15:27:28.569Z,78.40
2017-11-13T15:29:56.038Z,78.70
2017-11-13T15:32:23.512Z,78.70
2017-11-13T15:34:51.049Z,78.90
2017-11-13T15:37:18.506Z,79.20
2017-11-13T15:39:45.963Z,79.40
2017-11-13T15:42:13.461Z,79.50
2017-11-13T15:44:41.017Z,79.60
2017-11-13T15:47:08.535Z,79.80
2017-11-13T15:49:35.992Z,80.00
2017-11-13T15:52:03.491Z,79.70
2017-11-13T15:54:31.056Z,79.40
2017-11-13T15:56:58.527Z,79.40
2017-11-13T15:59:26.750Z,79.40
2017-11-13T16:01:54.223Z,79.30
2017-11-13T16:04:21.689Z,79.40
2017-11-13T16:06:49.156Z,79.60
2017-11-13T16:09:16.626Z,80.50
2017-11-13T16:11:44.849Z,80.30
2017-11-13T16:14:12.310Z,79.80
2017-11-13T16:16:39.831Z,80.10
2017-11-13T16:19:08.055Z,80.30
2017-11-13T16:21:35.523Z,80.20
2017-11-13T16:24:02.970Z,80.40
2017-11-13T16:26:30.423Z,80.50
2017-11-13T16:28:57.883Z,80.50
2017-11-13T16:31:25.341Z,80.30
2017-11-13T16:33:52.794Z,80.30
2017-11-13T16:36:20.329Z,80.50
2017-11-13T16:38:47.792Z,80.40
2017-11-13T16:41:15.255Z,80.50
2017-11-13T16:43:42.801Z,80.70
2017-11-13T16:46:10.251Z,81.00
2017-11-13T16:48:37.719Z,80.80
2017-11-13T16:51:05.179Z,81.00
2017-11-13T16:53:32.634Z,81.20
2017-11-13T16:56:00.101Z,81.30
2017-11-13T16:58:27.563Z,81.20
2017-11-13T17:00:55.051Z,81.30
2017-11-13T17:03:22.505Z,81.30
2017-11-13T17:05:50.786Z,80.50
2017-11-13T17:08:18.234Z,81.00
2017-11-13T17:10:45.697Z,81.20
2017-11-13T17:13:13.943Z,82.20
2017-11-13T17:15:41.409Z,81.30
2017-11-13T17:18:14.934Z,81.40
2017-11-13T17:20:43.161Z,81.70
2017-11-13T17:23:10.679Z,81.60
2017-11-13T17:25:38.897Z,81.60
2017-11-13T17:28:06.360Z,81.60
2017-11-13T17:30:33.831Z,81.40
2017-11-13T17:33:02.816Z,81.50
2017-11-13T17:35:30.336Z,81.40
2017-11-13T17:37:57.844Z,81.40
2017-11-13T17:40:25.313Z,81.30
2017-11-13T17:42:53.568Z,81.20
2017-11-13T17:45:21.811Z,81.40
2017-11-13T17:47:49.334Z,81.40
2017-11-13T17:50:17.553Z,81.40
2017-11-13T17:52:45.006Z,81.40
2017-11-13T17:55:12.469Z,81.20
2017-11-13T17:57:39.943Z,81.50
2017-11-13T18:00:07.448Z,81.70
2017-11-13T18:02:34.908Z,81.70
2017-11-13T18:05:02.377Z,81.70
2017-11-13T18:07:29.878Z,81.70
2017-11-13T18:09:57.359Z,81.80
2017-11-13T18:12:25.601Z,81.90
2017-11-13T18:14:53.062Z,81.90
2017-11-13T18:17:20.533Z,81.90
2017-11-13T18:19:48.020Z,81.80
2017-11-13T18:22:15.491Z,81.60
2017-11-13T18:24:42.942Z,81.60
2017-11-13T18:27:10.441Z,81.90
2017-11-13T18:29:37.916Z,81.90
2017-11-13T18:32:05.379Z,82.20
2017-11-13T18:34:32.849Z,82.00
2017-11-13T18:37:01.083Z,82.00
2017-11-13T18:39:28.536Z,81.90
2017-11-13T18:41:56.043Z,81.80
2017-11-13T18:44:24.278Z,82.00
2017-11-13T18:46:51.852Z,81.90
2017-11-13T18:49:19.325Z,81.80
2017-11-13T18:51:47.558Z,82.10
2017-11-13T18:54:15.036Z,82.10
2017-11-13T18:56:42.527Z,82.00
2017-11-13T18:59:09.985Z,82.00
2017-11-13T19:01:37.509Z,82.00
2017-11-13T19:04:04.978Z,82.00
2017-11-13T19:06:33.213Z,82.20
2017-11-13T19:09:01.340Z,82.20
2017-11-13T19:11:28.929Z,82.10
2017-11-13T19:13:56.541Z,82.00
2017-11-13T19:16:24.940Z,82.20
2017-11-13T19:18:53.227Z,81.70
2017-11-13T19:21:20.821Z,81.70
2017-11-13T19:23:48.303Z,81.60
2017-11-13T19:26:15.825Z,81.70
2017-11-13T19:28:44.234Z,81.70
2017-11-13T19:31:11.780Z,81.50
2017-11-13T19:33:39.300Z,81.50
2017-11-13T19:36:06.793Z,81.60
2017-11-13T19:38:34.256Z,81.70
2017-11-13T19:41:01.714Z,81.50
2017-11-13T19:43:29.204Z,81.40
2017-11-13T19:45:57.445Z,81.50
2017-11-13T19:48:24.906Z,81.40
2017-11-13T19:50:52.432Z,81.30
2017-11-13T19:53:19.895Z,81.10
2017-11-13T19:55:47.410Z,80.90
2017-11-13T19:58:15.630Z,81.40
2017-11-13T20:00:43.117Z,81.40
2017-11-13T20:03:10.569Z,81.60
2017-11-13T20:05:38.035Z,81.50
2017-11-13T20:08:05.701Z,81.60
2017-11-13T20:10:33.153Z,81.60
2017-11-13T20:13:00.620Z,81.50
2017-11-13T20:15:29.393Z,81.90
2017-11-13T20:17:57.786Z,81.60
2017-11-13T20:20:26.021Z,81.60
2017-11-13T20:22:53.488Z,81.50
2017-11-13T20:25:20.966Z,81.70
2017-11-13T20:27:48.427Z,81.60
2017-11-13T20:30:16.694Z,82.30
2017-11-13T20:32:45.660Z,81.50
2017-11-13T20:35:13.117Z,81.50
2017-11-13T20:37:40.605Z,81.50
2017-11-13T20:40:08.880Z,81.20
2017-11-13T20:42:36.353Z,81.10
2017-11-13T20:45:04.587Z,81.30
2017-11-13T20:47:32.079Z,81.10
2017-11-13T20:50:00.322Z,81.20
2017-11-13T20:52:27.790Z,81.00
2017-11-13T20:54:55.265Z,81.10
2017-11-13T20:57:22.721Z,81.10
2017-11-13T20:59:50.253Z,80.30
2017-11-13T21:02:17.718Z,80.80
2017-11-13T21:04:45.214Z,80.80
2017-11-13T21:07:12.711Z,81.00
2017-11-13T21:09:40.189Z,80.90
2017-11-13T21:12:08.428Z,81.10
2017-11-13T21:14:35.882Z,81.00
2017-11-13T21:17:03.355Z,81.20
2017-11-13T21:19:30.829Z,81.50
2017-11-13T21:21:58.403Z,81.70
2017-11-13T21:24:25.870Z,81.90
2017-11-13T21:26:54.090Z,82.30
2017-11-13T21:29:21.560Z,82.20
2017-11-13T21:31:49.030Z,82.30
2017-11-13T21:34:16.491Z,82.70
2017-11-13T21:36:43.945Z,82.90
2017-11-13T21:39:11.525Z,82.80
2017-11-13T21:41:38.981Z,82.90
2017-11-13T21:44:06.429Z,82.90
2017-11-13T21:46:33.903Z,82.90
2017-11-13T21:49:02.171Z,83.30
2017-11-13T21:51:29.647Z,83.20
2017-11-13T21:53:57.177Z,83.40
2017-11-13T21:56:24.671Z,83.60
2017-11-13T21:58:52.139Z,83.80
2017-11-13T22:01:19.598Z,83.70
2017-11-13T22:03:47.109Z,83.80
2017-11-13T22:06:14.569Z,83.80
2017-11-13T22:08:42.117Z,84.00
2017-11-13T22:11:09.577Z,84.10
2017-11-13T22:13:37.133Z,85.20
2017-11-13T22:16:04.594Z,84.60
2017-11-13T22:18:32.069Z,84.50
2017-11-13T22:21:00.321Z,84.50
2017-11-13T22:23:28.212Z,84.40
2017-11-13T22:25:56.437Z,84.60
2017-11-13T22:28:23.909Z,84.70
2017-11-13T22:30:51.371Z,84.50
2017-11-13T22:33:18.880Z,84.40
2017-11-13T22:35:46.336Z,84.20
2017-11-13T22:38:13.839Z,84.00
2017-11-13T22:40:41.301Z,84.10
2017-11-13T22:43:08.774Z,84.10
2017-11-13T22:45:36.239Z,84.30
2017-11-13T22:48:04.457Z,84.30
2017-11-13T22:50:31.921Z,84.20
2017-11-13T22:52:59.391Z,84.20
2017-11-13T22:55:26.863Z,84.00
2017-11-13T22:57:54.327Z,83.90
2017-11-13T23:00:21.800Z,83.80
2017-11-13T23:02:50.027Z,83.60
2017-11-13T23:05:17.482Z,83.60
2017-11-13T23:07:44.939Z,83.50
2017-11-13T23:10:12.418Z,83.50
2017-11-13T23:12:39.864Z,83.30
2017-11-13T23:15:07.313Z,83.20
2017-11-13T23:17:34.801Z,82.90
2017-11-13T23:20:02.356Z,82.80
2017-11-13T23:22:29.816Z,82.70
2017-11-13T23:24:58.041Z,82.60
2017-11-13T23:27:25.496Z,82.60
2017-11-13T23:29:53.287Z,82.50
2017-11-13T23:32:20.747Z,82.50
2017-11-13T23:34:48.197Z,82.50
2017-11-13T23:37:15.663Z,82.50
2017-11-13T23:39:43.114Z,82.30
2017-11-13T23:42:10.565Z,82.20
2017-11-13T23:44:38.022Z,82.20
2017-11-13T23:47:05.491Z,82.30
2017-11-13T23:49:33.009Z,82.30
2017-11-13T23:52:00.484Z,82.40
2017-11-13T23:54:35.718Z,82.40
2017-11-13T23:57:03.198Z,82.40
2017-11-13T23:59:30.655Z,82.50
